createdAt,value
2019-03-16T00:02:55.334Z,2.87
2019-03-16T00:06:59.067Z,4.07
2019-03-16T00:11:02.807Z,1.97
2019-03-16T00:15:06.119Z,3.97
2019-03-16T00:19:09.409Z,2.93
2019-03-16T00:23:13.395Z,2.70
2019-03-16T00:27:16.702Z,2.73
2019-03-16T00:31:20.058Z,3.50
2019-03-16T00:35:23.368Z,3.60
2019-03-16T00:39:26.651Z,3.60
2019-03-16T00:43:30.387Z,2.43
2019-03-16T00:47:34.142Z,2.20
2019-03-16T00:51:37.422Z,3.70
2019-03-16T00:55:41.154Z,3.43
2019-03-16T00:59:44.466Z,3.13
2019-03-16T01:03:47.755Z,3.10
2019-03-16T01:07:51.055Z,2.43
2019-03-16T01:11:54.582Z,4.13
2019-03-16T01:15:57.886Z,4.23
2019-03-16T01:20:01.190Z,4.07
2019-03-16T01:24:04.466Z,3.53
2019-03-16T01:28:09.067Z,3.23
2019-03-16T01:32:13.152Z,2.60
2019-03-16T01:36:16.874Z,3.30
2019-03-16T01:40:20.174Z,2.73
2019-03-16T01:44:23.913Z,3.23
2019-03-16T01:48:27.547Z,3.23
2019-03-16T01:52:30.849Z,3.23
2019-03-16T01:56:34.123Z,2.90
2019-03-16T02:00:38.146Z,3.13
2019-03-16T02:04:41.883Z,4.67
2019-03-16T02:08:45.183Z,2.83
2019-03-16T02:12:48.478Z,4.33
2019-03-16T02:16:52.125Z,2.60
2019-03-16T02:20:55.406Z,2.70
2019-03-16T02:24:59.164Z,4.30
2019-03-16T02:29:02.452Z,2.70
2019-03-16T02:33:13.424Z,3.20
2019-03-16T02:37:11.251Z,4.00
2019-03-16T02:41:14.530Z,3.13
2019-03-16T02:45:17.829Z,2.80
2019-03-16T02:49:22.695Z,3.83
2019-03-16T02:53:26.708Z,3.10
2019-03-16T02:57:30.451Z,4.53
2019-03-16T03:01:33.731Z,3.63
2019-03-16T03:05:37.828Z,3.10
2019-03-16T03:09:41.575Z,2.70
2019-03-16T03:13:44.859Z,2.90
2019-03-16T03:17:48.463Z,3.10
2019-03-16T03:21:51.775Z,3.00
2019-03-16T03:25:55.516Z,3.40
2019-03-16T03:29:58.820Z,3.50
2019-03-16T03:34:02.929Z,3.37
2019-03-16T03:38:06.963Z,2.67
2019-03-16T03:42:11.042Z,2.70
2019-03-16T03:46:14.330Z,2.30
2019-03-16T03:50:17.712Z,2.80
2019-03-16T03:54:21.527Z,1.97
2019-03-16T03:58:24.888Z,2.60
2019-03-16T04:02:28.407Z,2.63
2019-03-16T04:06:31.844Z,2.00
2019-03-16T04:10:35.631Z,1.53
2019-03-16T04:14:38.927Z,1.17
2019-03-16T04:18:42.218Z,1.60
2019-03-16T04:22:46.547Z,2.30
2019-03-16T04:26:49.842Z,2.30
2019-03-16T04:30:53.225Z,2.53
2019-03-16T04:34:56.532Z,1.63
2019-03-16T04:38:59.831Z,1.73
2019-03-16T04:43:03.579Z,1.23
2019-03-16T04:47:06.866Z,2.20
2019-03-16T04:51:10.190Z,1.70
2019-03-16T04:55:13.926Z,1.43
2019-03-16T04:59:18.494Z,1.10
2019-03-16T05:03:22.538Z,1.83
2019-03-16T05:07:26.274Z,2.47
2019-03-16T05:11:29.582Z,1.90
2019-03-16T05:15:33.310Z,2.50
2019-03-16T05:19:37.349Z,2.17
2019-03-16T05:23:40.933Z,2.13
2019-03-16T05:27:44.635Z,1.90
2019-03-16T05:31:50.590Z,1.70
2019-03-16T05:35:53.379Z,3.50
2019-03-16T05:39:57.459Z,2.70
2019-03-16T05:44:00.755Z,4.17
2019-03-16T05:48:04.474Z,2.80
2019-03-16T05:52:08.527Z,2.40
2019-03-16T05:56:12.267Z,3.20
2019-03-16T06:00:15.623Z,2.47
2019-03-16T06:04:19.355Z,2.53
2019-03-16T06:08:22.638Z,2.70
2019-03-16T06:12:25.938Z,2.67
2019-03-16T06:16:29.230Z,3.53
2019-03-16T06:20:32.526Z,1.97
2019-03-16T06:24:35.818Z,2.77
2019-03-16T06:28:39.552Z,2.30
2019-03-16T06:32:42.839Z,2.43
2019-03-16T06:36:46.146Z,1.77
2019-03-16T06:40:49.448Z,2.30
2019-03-16T06:44:52.742Z,2.30
2019-03-16T06:48:56.404Z,2.40
2019-03-16T06:52:59.702Z,2.33
2019-03-16T06:57:03.022Z,2.10
2019-03-16T07:01:06.351Z,2.17
2019-03-16T07:05:09.986Z,3.30
2019-03-16T07:09:13.280Z,1.73
2019-03-16T07:13:16.574Z,1.93
2019-03-16T07:17:20.313Z,2.50
2019-03-16T07:21:24.046Z,2.87
2019-03-16T07:25:27.602Z,3.03
2019-03-16T07:29:30.902Z,3.60
2019-03-16T07:33:34.226Z,2.93
2019-03-16T07:37:37.510Z,4.83
2019-03-16T07:41:40.887Z,3.10
2019-03-16T07:45:44.182Z,3.07
2019-03-16T07:49:47.482Z,3.07
2019-03-16T07:53:51.623Z,3.53
2019-03-16T07:57:55.670Z,3.33
2019-03-16T08:01:59.338Z,3.83
2019-03-16T08:06:02.632Z,4.67
2019-03-16T08:10:06.728Z,4.90
2019-03-16T08:14:10.332Z,5.90
2019-03-16T08:18:14.210Z,4.27
2019-03-16T08:22:17.506Z,4.67
2019-03-16T08:26:20.798Z,6.10
2019-03-16T08:30:24.092Z,6.33
2019-03-16T08:34:27.831Z,7.33
2019-03-16T08:38:31.846Z,9.20
2019-03-16T08:42:35.571Z,9.77
2019-03-16T08:46:39.249Z,9.17
2019-03-16T08:50:42.986Z,10.87
2019-03-16T08:54:46.739Z,9.77
2019-03-16T08:58:50.038Z,10.90
2019-03-16T09:02:53.322Z,11.57
2019-03-16T09:06:56.644Z,11.30
2019-03-16T09:10:59.948Z,13.57
2019-03-16T09:15:03.426Z,14.63
2019-03-16T09:19:07.495Z,14.93
2019-03-16T09:23:11.218Z,14.73
2019-03-16T09:27:14.519Z,16.20
2019-03-16T09:31:17.843Z,14.70
2019-03-16T09:35:21.137Z,13.60
2019-03-16T09:39:24.878Z,11.20
2019-03-16T09:43:28.170Z,10.00
2019-03-16T09:47:31.470Z,9.90
2019-03-16T09:51:34.771Z,10.47
2019-03-16T09:55:38.083Z,9.50
2019-03-16T09:59:41.402Z,9.80
2019-03-16T10:03:45.127Z,12.57
2019-03-16T10:07:48.430Z,9.27
2019-03-16T10:11:52.166Z,8.93
2019-03-16T10:15:55.891Z,9.00
2019-03-16T10:19:59.207Z,8.43
2019-03-16T10:24:03.227Z,8.03
2019-03-16T10:28:07.038Z,7.50
2019-03-16T10:32:10.574Z,8.00
2019-03-16T10:36:13.872Z,7.70
2019-03-16T10:40:17.170Z,9.03
2019-03-16T10:44:20.907Z,8.60
2019-03-16T10:48:24.201Z,8.70
2019-03-16T10:52:27.989Z,7.97
2019-03-16T10:56:31.747Z,8.27
2019-03-16T11:00:35.022Z,9.33
2019-03-16T11:04:38.764Z,8.03
2019-03-16T11:08:42.332Z,7.93
2019-03-16T11:12:45.604Z,6.50
2019-03-16T11:16:48.898Z,6.80
2019-03-16T11:20:52.190Z,7.63
2019-03-16T11:24:55.470Z,6.27
2019-03-16T11:29:08.479Z,7.13
2019-03-16T11:33:04.603Z,5.43
2019-03-16T11:37:08.319Z,4.63
2019-03-16T11:41:12.302Z,4.17
2019-03-16T11:45:17.238Z,4.40
2019-03-16T11:49:20.937Z,4.27
2019-03-16T11:53:24.486Z,5.07
2019-03-16T11:57:28.227Z,3.97
2019-03-16T12:01:31.515Z,3.40
2019-03-16T12:05:34.810Z,3.50
2019-03-16T12:09:38.096Z,4.17
2019-03-16T12:13:43.913Z,4.53
2019-03-16T12:17:46.845Z,4.17
2019-03-16T12:21:50.123Z,4.73
2019-03-16T12:25:54.014Z,3.43
2019-03-16T12:29:57.323Z,3.87
2019-03-16T12:34:00.614Z,3.77
2019-03-16T12:38:03.926Z,4.23
2019-03-16T12:42:07.223Z,2.80
2019-03-16T12:46:10.514Z,3.07
2019-03-16T12:50:14.202Z,3.67
2019-03-16T12:54:17.575Z,2.17
2019-03-16T12:58:21.330Z,3.47
2019-03-16T13:02:24.670Z,3.20
2019-03-16T13:06:28.411Z,3.13
2019-03-16T13:10:32.142Z,2.90
2019-03-16T13:14:35.690Z,3.20
2019-03-16T13:18:38.988Z,3.10
2019-03-16T13:22:42.430Z,2.50
2019-03-16T13:26:46.265Z,2.60
2019-03-16T13:30:49.540Z,2.80
2019-03-16T13:34:52.814Z,2.30
2019-03-16T13:38:56.107Z,2.60
2019-03-16T13:42:59.891Z,3.10
2019-03-16T13:47:03.690Z,2.00
2019-03-16T13:51:13.842Z,2.60
2019-03-16T13:55:17.203Z,3.03
2019-03-16T13:59:20.543Z,2.97
2019-03-16T14:03:24.736Z,2.40
2019-03-16T14:07:28.287Z,2.23
2019-03-16T14:11:31.827Z,2.97
2019-03-16T14:15:38.382Z,1.83
2019-03-16T14:19:41.690Z,2.00
2019-03-16T14:23:45.769Z,3.93
2019-03-16T14:27:49.053Z,2.47
2019-03-16T14:31:52.371Z,2.50
2019-03-16T14:35:56.127Z,2.10
2019-03-16T14:40:00.144Z,2.50
2019-03-16T14:44:03.758Z,2.70
2019-03-16T14:48:07.058Z,2.13
2019-03-16T14:52:10.369Z,2.00
2019-03-16T14:56:13.660Z,3.03
2019-03-16T15:00:19.903Z,3.90
2019-03-16T15:04:23.204Z,2.10
2019-03-16T15:08:27.630Z,2.60
2019-03-16T15:12:30.904Z,2.40
2019-03-16T15:16:34.606Z,3.07
2019-03-16T15:20:38.448Z,2.87
2019-03-16T15:24:42.159Z,1.80
2019-03-16T15:28:45.524Z,1.97
2019-03-16T15:32:48.879Z,2.63
2019-03-16T15:36:52.183Z,2.50
2019-03-16T15:40:55.475Z,1.83
2019-03-16T15:44:58.750Z,1.90
2019-03-16T15:49:02.062Z,2.17
2019-03-16T15:53:05.650Z,2.67
2019-03-16T15:57:08.944Z,2.23
2019-03-16T16:01:12.263Z,2.33
2019-03-16T16:05:16.055Z,1.80
2019-03-16T16:09:19.607Z,1.90
2019-03-16T16:13:23.186Z,1.90
2019-03-16T16:17:27.122Z,1.87
2019-03-16T16:21:30.553Z,2.07
2019-03-16T16:25:33.843Z,2.17
2019-03-16T16:29:37.130Z,2.50
2019-03-16T16:33:41.239Z,2.63
2019-03-16T16:37:45.028Z,2.27
2019-03-16T16:41:48.330Z,2.73
2019-03-16T16:45:52.067Z,2.40
2019-03-16T16:49:55.358Z,2.23
2019-03-16T16:53:58.650Z,3.13
2019-03-16T16:58:02.369Z,2.57
2019-03-16T17:02:05.703Z,3.30
2019-03-16T17:06:09.048Z,2.60
2019-03-16T17:10:12.986Z,3.53
2019-03-16T17:14:17.046Z,3.83
2019-03-16T17:18:20.770Z,3.53
2019-03-16T17:22:24.102Z,2.57
2019-03-16T17:26:27.405Z,2.93
2019-03-16T17:30:30.803Z,3.33
2019-03-16T17:34:34.835Z,2.43
2019-03-16T17:38:38.128Z,2.33
2019-03-16T17:42:41.474Z,2.53
2019-03-16T17:46:44.758Z,2.50
2019-03-16T17:50:48.034Z,2.73
2019-03-16T17:54:51.335Z,2.60
2019-03-16T17:58:55.371Z,2.13
2019-03-16T18:02:58.946Z,3.13
2019-03-16T18:07:02.702Z,2.63
2019-03-16T18:11:05.999Z,2.70
2019-03-16T18:15:11.932Z,2.70
2019-03-16T18:19:15.270Z,2.67
2019-03-16T18:23:18.645Z,2.90
2019-03-16T18:27:22.165Z,2.50
2019-03-16T18:31:25.891Z,2.90
2019-03-16T18:35:29.175Z,2.07
2019-03-16T18:39:32.530Z,3.03
2019-03-16T18:43:35.807Z,3.93
2019-03-16T18:47:39.106Z,4.50
2019-03-16T18:51:42.406Z,3.73
2019-03-16T18:55:46.131Z,2.93
2019-03-16T18:59:49.881Z,3.23
2019-03-16T19:03:53.254Z,3.10
2019-03-16T19:07:56.555Z,2.57
2019-03-16T19:12:00.079Z,3.27
2019-03-16T19:16:03.391Z,3.00
2019-03-16T19:20:07.163Z,3.70
2019-03-16T19:24:10.475Z,3.13
2019-03-16T19:28:13.762Z,4.20
2019-03-16T19:32:17.499Z,3.17
2019-03-16T19:36:20.855Z,3.80
2019-03-16T19:40:24.316Z,3.80
2019-03-16T19:44:28.059Z,3.60
2019-03-16T19:48:31.379Z,3.67
2019-03-16T19:52:34.667Z,3.77
2019-03-16T19:56:37.970Z,3.80
2019-03-16T20:00:41.271Z,4.00
2019-03-16T20:04:45.392Z,3.57
2019-03-16T20:08:48.702Z,3.37
2019-03-16T20:12:53.291Z,4.37
2019-03-16T20:16:57.796Z,3.90
2019-03-16T20:21:01.540Z,5.43
2019-03-16T20:25:04.915Z,4.43
2019-03-16T20:29:08.233Z,5.60
2019-03-16T20:33:11.950Z,5.00
2019-03-16T20:37:16.002Z,7.27
2019-03-16T20:41:19.311Z,4.87
2019-03-16T20:45:22.791Z,5.40
2019-03-16T20:49:26.832Z,4.70
2019-03-16T20:53:30.139Z,5.10
2019-03-16T20:57:33.474Z,5.30
2019-03-16T21:01:37.504Z,5.43
2019-03-16T21:05:40.799Z,5.50
2019-03-16T21:09:44.182Z,4.77
2019-03-16T21:13:48.026Z,5.60
2019-03-16T21:17:51.396Z,4.73
2019-03-16T21:21:54.751Z,5.63
2019-03-16T21:25:58.218Z,5.80
2019-03-16T21:30:02.022Z,5.73
2019-03-16T21:34:05.720Z,4.80
2019-03-16T21:38:09.078Z,5.40
2019-03-16T21:42:12.898Z,4.90
2019-03-16T21:46:16.327Z,4.83
2019-03-16T21:50:19.642Z,4.03
2019-03-16T21:54:23.054Z,4.40
2019-03-16T21:58:26.716Z,4.50
2019-03-16T22:02:30.105Z,4.43
2019-03-16T22:06:33.845Z,4.00
2019-03-16T22:10:37.181Z,4.27
2019-03-16T22:14:40.593Z,3.73
2019-03-16T22:18:44.793Z,4.33
2019-03-16T22:22:48.230Z,4.13
2019-03-16T22:26:51.594Z,4.20
2019-03-16T22:30:55.741Z,3.53
2019-03-16T22:34:59.211Z,4.63
2019-03-16T22:39:02.840Z,3.43
2019-03-16T22:43:06.251Z,3.60
2019-03-16T22:47:09.707Z,3.33
2019-03-16T22:51:13.672Z,3.20
2019-03-16T22:55:16.991Z,4.07
2019-03-16T22:59:20.343Z,4.40
2019-03-16T23:03:23.691Z,3.93
2019-03-16T23:07:27.125Z,4.00
2019-03-16T23:11:30.562Z,4.00
2019-03-16T23:15:33.888Z,4.00
2019-03-16T23:19:38.078Z,3.87
2019-03-16T23:23:42.571Z,4.10
2019-03-16T23:27:46.226Z,3.77
2019-03-16T23:31:49.636Z,4.37
2019-03-16T23:35:53.028Z,4.73
2019-03-16T23:39:56.485Z,4.53
2019-03-16T23:44:00.464Z,4.10
2019-03-16T23:48:03.939Z,4.30
2019-03-16T23:52:07.409Z,4.37
2019-03-16T23:56:10.760Z,4.10
